Time;durP1;ratioP1;P1;durP2;ratioP2;P2;SDS_P1;SDS_P2;PMS_P1;PMS_P2;Temp;Humidity;BMP_temperature;BMP_pressure;BME280_temperature;BME280_humidity;BME280_pressure;Samples;Min_cycle;Max_cycle;Signal;HPM_P1;HPM_P2
2023/09/27 00:00:25;;;;;;;8.20;7.50;;;17.90;99.90;;;;;;4973510;28;20220;-71
2023/09/27 00:02:52;;;;;;;10.40;7.63;;;18.00;99.90;;;;;;4974271;28;20637;-71
2023/09/27 00:05:20;;;;;;;8.10;7.50;;;18.00;99.90;;;;;;4974148;28;20236;-71
2023/09/27 00:07:46;;;;;;;7.63;7.13;;;18.00;99.90;;;;;;4975003;28;20424;-71
2023/09/27 00:10:12;;;;;;;7.70;7.10;;;18.00;99.90;;;;;;4975230;28;20414;-64
2023/09/27 00:12:39;;;;;;;8.40;7.80;;;18.00;99.90;;;;;;4974383;28;20239;-72
2023/09/27 00:15:07;;;;;;;8.60;8.00;;;17.90;99.90;;;;;;4975083;28;20825;-72
2023/09/27 00:17:33;;;;;;;10.07;9.30;;;17.90;99.90;;;;;;4974140;28;20419;-71
2023/09/27 00:19:59;;;;;;;9.20;8.47;;;17.90;99.90;;;;;;4974922;28;20467;-72
2023/09/27 00:22:25;;;;;;;10.13;9.33;;;17.80;99.90;;;;;;4962740;28;20217;-72
2023/09/27 00:24:51;;;;;;;9.73;8.83;;;17.80;99.90;;;;;;4955236;29;20648;-71
2023/09/27 00:27:17;;;;;;;8.80;8.20;;;17.80;99.90;;;;;;4954548;28;20232;-64
2023/09/27 00:29:43;;;;;;;9.00;8.30;;;17.80;99.90;;;;;;4940245;28;20448;-71
2023/09/27 00:32:09;;;;;;;9.40;8.70;;;17.70;99.90;;;;;;4973823;28;20458;-71
2023/09/27 00:34:35;;;;;;;9.43;8.73;;;17.70;99.90;;;;;;4973657;28;20183;-72
2023/09/27 00:37:01;;;;;;;9.90;9.10;;;17.70;99.90;;;;;;4974341;28;20412;-72
2023/09/27 00:39:27;;;;;;;11.10;10.23;;;17.70;99.90;;;;;;4973374;28;20452;-72
2023/09/27 00:41:52;;;;;;;10.40;9.50;;;17.70;99.90;;;;;;4973518;28;20181;-71
2023/09/27 00:44:19;;;;;;;9.57;8.80;;;17.70;99.90;;;;;;4973667;28;20824;-70
2023/09/27 00:46:44;;;;;;;11.23;10.33;;;17.70;99.90;;;;;;4974594;28;20173;-72
2023/09/27 00:49:12;;;;;;;11.87;10.73;;;17.70;99.90;;;;;;4955496;28;20431;-72
2023/09/27 00:51:38;;;;;;;10.10;9.30;;;17.60;99.90;;;;;;4954285;29;20405;-71
2023/09/27 00:54:04;;;;;;;12.00;11.10;;;17.60;99.90;;;;;;4955061;29;20401;-72
2023/09/27 00:56:31;;;;;;;10.70;9.80;;;17.60;99.90;;;;;;4954194;29;20511;-72
2023/09/27 00:58:57;;;;;;;10.50;9.50;;;17.60;99.90;;;;;;4937511;29;20425;-71
2023/09/27 01:01:26;;;;;;;10.40;9.57;;;17.60;99.90;;;;;;4954721;28;20478;-68
2023/09/27 01:03:56;;;;;;;10.07;9.27;;;17.50;99.90;;;;;;4954779;29;20776;-71
2023/09/27 01:06:22;;;;;;;9.90;9.10;;;17.50;99.90;;;;;;4954046;29;20409;-71
2023/09/27 01:08:48;;;;;;;11.27;10.37;;;17.50;99.90;;;;;;4972271;28;20423;-70
2023/09/27 01:11:14;;;;;;;13.37;12.17;;;17.40;99.90;;;;;;4974326;28;20407;-71
2023/09/27 01:13:40;;;;;;;11.40;10.50;;;17.50;99.90;;;;;;4972980;28;20259;-70
2023/09/27 01:16:05;;;;;;;11.87;10.87;;;17.40;99.90;;;;;;4974246;28;20555;-70
2023/09/27 01:18:31;;;;;;;12.43;11.33;;;17.50;99.90;;;;;;4973160;28;20176;-71
2023/09/27 01:20:57;;;;;;;10.50;9.70;;;17.40;99.90;;;;;;4963951;28;20231;-71
2023/09/27 01:23:22;;;;;;;12.03;10.93;;;17.40;99.90;;;;;;4953813;29;20185;-70
2023/09/27 01:25:58;;;;;;;13.33;12.03;;;17.40;99.90;;;;;;4954750;29;20268;-70
2023/09/27 01:28:24;;;;;;;13.77;12.53;;;17.40;99.90;;;;;;4953746;28;20248;-70
2023/09/27 01:30:50;;;;;;;13.50;12.30;;;17.40;99.90;;;;;;4964540;28;20459;-70
2023/09/27 01:33:16;;;;;;;13.00;11.90;;;17.40;99.90;;;;;;4973425;28;20169;-71
2023/09/27 01:35:43;;;;;;;12.07;11.17;;;17.40;99.90;;;;;;4972899;28;20426;-71
2023/09/27 01:38:10;;;;;;;12.20;11.20;;;17.40;99.90;;;;;;4973905;28;20180;-70
2023/09/27 01:40:41;;;;;;;12.10;11.00;;;17.40;99.90;;;;;;4972705;28;20448;-70
2023/09/27 01:43:08;;;;;;;12.20;11.20;;;17.30;99.90;;;;;;4963637;28;20439;-70
2023/09/27 01:45:34;;;;;;;12.23;11.23;;;17.30;99.90;;;;;;4953789;29;20411;-70
2023/09/27 01:48:01;;;;;;;11.67;10.63;;;17.30;99.90;;;;;;4969649;28;20419;-70
2023/09/27 01:50:30;;;;;;;11.27;10.27;;;17.30;99.90;;;;;;4972702;28;20420;-70
2023/09/27 01:52:57;;;;;;;11.37;10.40;;;17.30;99.90;;;;;;4973072;28;20416;-70
2023/09/27 01:55:24;;;;;;;11.10;10.20;;;17.30;99.90;;;;;;4972693;28;20412;-68
2023/09/27 01:57:50;;;;;;;11.00;10.10;;;17.20;99.90;;;;;;4973197;28;20766;-69
2023/09/27 02:00:18;;;;;;;12.43;11.33;;;17.20;99.90;;;;;;4968672;28;20525;-70
2023/09/27 02:02:57;;;;;;;11.23;10.23;;;17.20;99.90;;;;;;4953504;29;20441;-70
2023/09/27 02:05:24;;;;;;;10.70;9.80;;;17.10;99.90;;;;;;4953435;29;20936;-64
2023/09/27 02:07:49;;;;;;;10.43;9.70;;;17.20;99.90;;;;;;4954061;28;20427;-69
2023/09/27 02:10:15;;;;;;;11.07;10.20;;;17.20;99.90;;;;;;4953791;29;20799;-70
2023/09/27 02:12:41;;;;;;;10.60;9.70;;;17.20;99.90;;;;;;4967264;28;20731;-70
2023/09/27 02:15:09;;;;;;;10.40;9.50;;;17.20;99.90;;;;;;4973300;28;20415;-70
2023/09/27 02:17:35;;;;;;;9.80;9.10;;;17.20;99.90;;;;;;4972484;28;20188;-70
2023/09/27 02:20:07;;;;;;;11.33;10.33;;;17.10;99.90;;;;;;4971772;28;20975;-70
2023/09/27 02:22:37;;;;;;;10.50;9.70;;;17.10;99.90;;;;;;4953279;29;20409;-70
2023/09/27 02:25:05;;;;;;;10.33;9.63;;;17.10;99.90;;;;;;4953840;29;20420;-70
2023/09/27 02:27:31;;;;;;;9.37;8.67;;;17.10;99.90;;;;;;4947929;28;20502;-70
2023/09/27 02:29:57;;;;;;;10.10;9.20;;;17.00;99.90;;;;;;4953809;28;20429;-70
2023/09/27 02:32:24;;;;;;;10.77;9.87;;;17.00;99.90;;;;;;4953058;28;20569;-63
2023/09/27 02:34:51;;;;;;;10.50;9.70;;;17.00;99.90;;;;;;4953918;28;20416;-70
2023/09/27 02:37:17;;;;;;;10.40;9.50;;;17.00;99.90;;;;;;4953513;28;20440;-71
2023/09/27 02:39:43;;;;;;;10.07;9.27;;;17.00;99.90;;;;;;4952815;28;20476;-70
2023/09/27 02:42:12;;;;;;;9.87;9.03;;;17.00;99.90;;;;;;4952111;28;20193;-71
2023/09/27 02:44:38;;;;;;;10.10;9.30;;;17.00;99.90;;;;;;4952665;28;20425;-70
2023/09/27 02:47:05;;;;;;;9.37;8.70;;;17.00;99.90;;;;;;4952530;29;20762;-70
2023/09/27 02:49:34;;;;;;;9.90;9.00;;;17.00;99.90;;;;;;4952047;29;20413;-69
2023/09/27 02:52:00;;;;;;;9.70;9.00;;;16.90;99.90;;;;;;4952478;29;20404;-70
2023/09/27 02:54:27;;;;;;;9.07;8.37;;;16.90;99.90;;;;;;4952906;29;20423;-68
2023/09/27 02:56:53;;;;;;;10.97;10.10;;;16.90;99.90;;;;;;4953515;29;20409;-70
2023/09/27 02:59:18;;;;;;;10.60;9.70;;;16.90;99.90;;;;;;4951719;28;20451;-69
2023/09/27 03:01:44;;;;;;;10.33;9.53;;;16.80;99.90;;;;;;4944056;29;20181;-69
2023/09/27 03:04:11;;;;;;;10.60;9.80;;;16.90;99.90;;;;;;4940841;29;20181;-70
2023/09/27 03:06:41;;;;;;;11.40;10.40;;;16.80;99.90;;;;;;4955496;28;20267;-69
2023/09/27 03:09:08;;;;;;;11.37;10.10;;;16.80;99.90;;;;;;4956969;28;20416;-69
2023/09/27 03:11:39;;;;;;;11.50;10.53;;;16.80;99.90;;;;;;4953568;29;20479;-69
2023/09/27 03:14:05;;;;;;;10.97;9.97;;;16.80;99.90;;;;;;4956593;28;20904;-69
2023/09/27 03:16:31;;;;;;;11.67;10.67;;;16.80;99.90;;;;;;4956050;28;20409;-69
2023/09/27 03:19:00;;;;;;;10.47;9.63;;;16.80;99.90;;;;;;4956653;29;20546;-70
2023/09/27 03:21:29;;;;;;;10.50;9.70;;;16.70;99.90;;;;;;4956115;28;20236;-63
2023/09/27 03:23:55;;;;;;;10.70;9.80;;;16.70;99.90;;;;;;4956779;28;20508;-69
2023/09/27 03:26:23;;;;;;;9.87;9.17;;;16.70;99.90;;;;;;4956646;29;20412;-69
2023/09/27 03:28:52;;;;;;;11.90;10.93;;;16.70;99.90;;;;;;4974189;28;20452;-69
2023/09/27 03:31:19;;;;;;;9.60;8.90;;;16.60;99.90;;;;;;4975857;28;20880;-69
2023/09/27 03:33:46;;;;;;;10.13;9.33;;;16.60;99.90;;;;;;4974827;28;20502;-69
2023/09/27 03:36:12;;;;;;;11.60;10.70;;;16.60;99.90;;;;;;4975735;28;20467;-69
2023/09/27 03:38:38;;;;;;;10.30;9.40;;;16.60;99.90;;;;;;4975107;28;20419;-69
2023/09/27 03:41:11;;;;;;;9.97;9.17;;;16.60;99.90;;;;;;4973956;28;20464;-68
2023/09/27 03:43:37;;;;;;;9.67;8.80;;;16.60;99.90;;;;;;4974130;28;20439;-69
2023/09/27 03:46:03;;;;;;;10.50;9.70;;;16.50;99.90;;;;;;4975645;28;20412;-70
2023/09/27 03:48:30;;;;;;;9.83;9.03;;;16.50;99.90;;;;;;4974559;28;20420;-68
2023/09/27 03:50:56;;;;;;;10.00;9.20;;;16.50;99.90;;;;;;4975464;28;20419;-69
2023/09/27 03:53:22;;;;;;;9.90;9.10;;;16.50;99.90;;;;;;4975426;28;20411;-70
2023/09/27 03:55:48;;;;;;;9.50;8.60;;;16.50;99.90;;;;;;4974604;28;20430;-70
2023/09/27 03:58:14;;;;;;;10.80;10.00;;;16.50;99.90;;;;;;4975517;28;20210;-69
2023/09/27 04:00:39;;;;;;;10.27;9.40;;;16.50;99.90;;;;;;4974465;28;20247;-69
2023/09/27 04:03:05;;;;;;;8.73;8.03;;;16.50;99.90;;;;;;4974682;28;20604;-70
2023/09/27 04:05:31;;;;;;;9.80;9.10;;;16.40;99.90;;;;;;4974441;28;20259;-68
2023/09/27 04:07:57;;;;;;;10.20;9.20;;;16.40;99.90;;;;;;4974860;28;20180;-69
2023/09/27 04:10:24;;;;;;;11.40;10.50;;;16.40;99.90;;;;;;4974743;28;20184;-68
2023/09/27 04:12:50;;;;;;;12.07;10.97;;;16.40;99.90;;;;;;4972640;28;20432;-69
2023/09/27 04:15:17;;;;;;;11.60;10.50;;;16.40;99.90;;;;;;4974915;28;20502;-69
2023/09/27 04:17:43;;;;;;;10.30;9.40;;;16.30;99.90;;;;;;4973936;28;20396;-69
2023/09/27 04:20:19;;;;;;;10.43;9.63;;;16.30;99.90;;;;;;4974851;28;20832;-69
2023/09/27 04:22:47;;;;;;;9.90;9.20;;;16.40;99.90;;;;;;4956838;28;20176;-69
2023/09/27 04:25:14;;;;;;;8.53;7.80;;;16.40;99.90;;;;;;4957623;28;20415;-69
2023/09/27 04:27:43;;;;;;;8.30;7.70;;;16.40;99.90;;;;;;4973743;28;20510;-68
2023/09/27 04:30:13;;;;;;;8.00;7.40;;;16.40;99.90;;;;;;4974405;28;20443;-68
2023/09/27 04:32:43;;;;;;;8.60;7.90;;;16.40;99.90;;;;;;4973592;28;20408;-68
2023/09/27 04:35:10;;;;;;;8.87;8.27;;;16.40;99.90;;;;;;4974993;28;20416;-68
2023/09/27 04:37:39;;;;;;;9.00;8.40;;;16.30;99.90;;;;;;4974110;28;20411;-68
2023/09/27 04:40:11;;;;;;;8.80;8.10;;;16.30;99.90;;;;;;4974473;28;20943;-69
2023/09/27 04:42:38;;;;;;;9.20;8.50;;;16.30;99.90;;;;;;4972830;28;20435;-68
2023/09/27 04:45:06;;;;;;;9.00;8.30;;;16.30;99.90;;;;;;4973917;28;20832;-68
2023/09/27 04:47:32;;;;;;;9.27;8.57;;;16.30;99.90;;;;;;4962987;28;20905;-62
2023/09/27 04:49:58;;;;;;;8.90;8.27;;;16.30;99.90;;;;;;4955052;29;20426;-69
2023/09/27 04:52:24;;;;;;;8.67;8.07;;;16.30;99.90;;;;;;4955089;29;20212;-69
2023/09/27 04:54:59;;;;;;;9.93;9.13;;;16.30;99.90;;;;;;4954711;28;20788;-69
2023/09/27 04:57:25;;;;;;;9.93;9.10;;;16.20;99.90;;;;;;4937789;29;20510;-67
2023/09/27 04:59:54;;;;;;;9.17;8.47;;;16.20;99.90;;;;;;4936820;29;20548;-68
2023/09/27 05:02:21;;;;;;;10.77;9.87;;;16.20;99.90;;;;;;4954991;28;20187;-69
2023/09/27 05:04:47;;;;;;;9.90;9.20;;;16.20;99.90;;;;;;4961734;28;20430;-69
2023/09/27 05:07:18;;;;;;;9.70;9.00;;;16.20;99.90;;;;;;4974114;28;20431;-69
2023/09/27 05:09:44;;;;;;;9.87;9.07;;;16.20;99.90;;;;;;4973364;28;20436;-68
2023/09/27 05:12:11;;;;;;;11.47;10.43;;;16.20;99.90;;;;;;4972801;28;20432;-69
2023/09/27 05:14:37;;;;;;;13.30;12.00;;;16.20;99.90;;;;;;4972978;28;20442;-69
2023/09/27 05:17:02;;;;;;;11.70;10.67;;;16.20;99.90;;;;;;4972550;28;20447;-69
2023/09/27 05:19:28;;;;;;;9.87;9.07;;;16.30;99.90;;;;;;4954532;28;20213;-68
2023/09/27 05:21:54;;;;;;;11.10;10.20;;;16.20;99.90;;;;;;4953798;28;20244;-68
2023/09/27 05:24:20;;;;;;;9.90;9.00;;;16.30;99.90;;;;;;4954470;28;20239;-67
2023/09/27 05:26:45;;;;;;;9.77;8.87;;;16.20;99.90;;;;;;4962102;28;20416;-68
2023/09/27 05:29:13;;;;;;;10.20;9.33;;;16.30;99.90;;;;;;4960834;28;20173;-68
2023/09/27 05:31:43;;;;;;;9.93;9.03;;;16.30;99.90;;;;;;4959411;28;20181;-68
2023/09/27 05:34:09;;;;;;;10.40;9.40;;;16.30;99.90;;;;;;4960010;28;20459;-75
2023/09/27 05:36:35;;;;;;;10.87;9.90;;;16.30;99.90;;;;;;4972927;28;20407;-70
2023/09/27 05:39:02;;;;;;;9.83;9.13;;;16.30;99.90;;;;;;4969921;28;20428;-72
2023/09/27 05:41:28;;;;;;;10.40;9.50;;;16.40;99.90;;;;;;4948591;28;20687;-70
2023/09/27 05:43:54;;;;;;;12.27;11.27;;;16.40;99.90;;;;;;4968201;28;20415;-70
2023/09/27 05:46:20;;;;;;;10.40;9.40;;;16.30;99.90;;;;;;4972327;28;20419;-69
2023/09/27 05:48:45;;;;;;;11.90;10.80;;;16.30;99.90;;;;;;4971815;28;20183;-69
2023/09/27 05:51:12;;;;;;;11.37;10.40;;;16.30;99.90;;;;;;4972740;28;20191;-67
2023/09/27 05:53:38;;;;;;;10.63;9.73;;;16.20;99.90;;;;;;4954803;28;20180;-65
2023/09/27 05:56:04;;;;;;;10.63;9.83;;;16.30;99.90;;;;;;4972052;28;20526;-64
2023/09/27 05:58:34;;;;;;;10.40;9.60;;;16.20;99.90;;;;;;4972988;28;20662;-67
2023/09/27 06:01:04;;;;;;;11.50;10.40;;;16.20;99.90;;;;;;4971570;28;20208;-74
2023/09/27 06:03:31;;;;;;;10.77;9.87;;;16.20;99.90;;;;;;4972771;28;20437;-72
2023/09/27 06:05:58;;;;;;;10.73;9.83;;;16.10;99.90;;;;;;4972305;28;20428;-73
2023/09/27 06:08:25;;;;;;;11.70;10.13;;;16.10;99.90;;;;;;4973474;28;20502;-73
2023/09/27 06:10:50;;;;;;;12.87;11.57;;;16.10;99.90;;;;;;4948556;28;20422;-67
2023/09/27 06:13:16;;;;;;;14.30;11.03;;;16.10;99.90;;;;;;4973023;28;20455;-65
2023/09/27 06:15:42;;;;;;;13.57;12.27;;;16.10;99.90;;;;;;4970905;28;20191;-65
2023/09/27 06:18:09;;;;;;;12.30;11.20;;;16.30;99.90;;;;;;4972730;28;20225;-65
2023/09/27 06:20:38;;;;;;;11.83;10.63;;;16.60;99.90;;;;;;4968235;28;20473;-62
2023/09/27 06:23:04;;;;;;;12.90;11.80;;;16.70;99.90;;;;;;4973229;28;20427;-65
2023/09/27 06:25:31;;;;;;;12.60;11.70;;;16.90;99.90;;;;;;4972758;28;20450;-65
2023/09/27 06:27:57;;;;;;;11.63;10.63;;;17.20;99.90;;;;;;4957314;28;20468;-65
2023/09/27 06:30:23;;;;;;;12.23;10.57;;;17.60;99.90;;;;;;4972034;28;20790;-66
2023/09/27 06:32:49;;;;;;;8.90;8.20;;;17.80;99.90;;;;;;4970858;28;20262;-66
2023/09/27 06:35:15;;;;;;;12.30;10.77;;;18.30;99.90;;;;;;4972283;28;20420;-66
2023/09/27 06:37:44;;;;;;;14.47;12.50;;;18.60;99.90;;;;;;4963809;28;20435;-71
2023/09/27 06:40:24;;;;;;;13.20;11.90;;;18.90;99.90;;;;;;4975582;28;20461;-72
2023/09/27 06:42:49;;;;;;;14.23;12.90;;;18.90;99.90;;;;;;4976014;28;20412;-70
2023/09/27 06:45:15;;;;;;;15.07;13.67;;;18.80;99.90;;;;;;4976329;28;20427;-70
2023/09/27 06:47:44;;;;;;;14.60;13.13;;;18.60;99.90;;;;;;4975951;28;20607;-70
2023/09/27 06:50:10;;;;;;;14.80;13.40;;;18.50;99.90;;;;;;4974250;28;20275;-70
2023/09/27 06:52:40;;;;;;;14.47;13.17;;;18.40;99.90;;;;;;4970267;28;20417;-64
2023/09/27 06:55:13;;;;;;;14.10;12.80;;;18.30;99.90;;;;;;4975133;28;20510;-65
2023/09/27 06:57:44;;;;;;;13.90;12.60;;;18.20;99.90;;;;;;4975095;28;20911;-68
2023/09/27 07:00:18;;;;;;;14.63;13.23;;;18.10;99.90;;;;;;4964318;28;20811;-70
2023/09/27 07:02:46;;;;;;;14.40;13.07;;;18.00;99.90;;;;;;4956342;29;20404;-69
2023/09/27 07:05:11;;;;;;;14.43;13.10;;;18.00;99.90;;;;;;4963748;28;20417;-69
2023/09/27 07:07:38;;;;;;;13.30;12.10;;;17.90;99.90;;;;;;4967333;28;20431;-65
2023/09/27 07:10:05;;;;;;;13.73;12.47;;;17.90;99.90;;;;;;4967231;28;20503;-69
2023/09/27 07:12:30;;;;;;;14.57;13.17;;;17.80;99.90;;;;;;4957116;29;20541;-70
2023/09/27 07:14:58;;;;;;;13.80;12.50;;;17.80;99.90;;;;;;4959586;28;21258;-70
2023/09/27 07:17:25;;;;;;;14.53;13.33;;;17.80;99.90;;;;;;4975499;28;20203;-70
2023/09/27 07:19:52;;;;;;;14.50;13.20;;;17.80;99.90;;;;;;4957729;28;20868;-70
2023/09/27 07:22:19;;;;;;;14.87;13.40;;;17.80;99.90;;;;;;4968829;28;20444;-70
2023/09/27 07:24:44;;;;;;;14.90;13.60;;;17.80;99.90;;;;;;4971200;28;20416;-67
2023/09/27 07:27:10;;;;;;;13.57;12.37;;;17.80;99.90;;;;;;4963275;28;20467;-67
2023/09/27 07:29:36;;;;;;;13.63;12.23;;;17.80;99.90;;;;;;4965261;28;20428;-69
2023/09/27 07:32:04;;;;;;;14.03;12.90;;;17.80;99.90;;;;;;4970271;28;20219;-70
2023/09/27 07:34:30;;;;;;;14.47;12.93;;;17.80;99.90;;;;;;4970384;28;20890;-68
2023/09/27 07:36:56;;;;;;;13.27;12.07;;;17.90;99.90;;;;;;4974789;28;20510;-67
2023/09/27 07:39:22;;;;;;;12.70;11.60;;;17.90;99.90;;;;;;4973036;28;20463;-67
2023/09/27 07:41:49;;;;;;;12.43;11.33;;;17.90;99.90;;;;;;4973956;28;20439;-67
2023/09/27 07:44:17;;;;;;;11.53;10.43;;;17.90;99.90;;;;;;4975429;28;20423;-67
2023/09/27 07:46:45;;;;;;;11.70;10.70;;;17.90;99.90;;;;;;4957696;28;20411;-66
2023/09/27 07:49:11;;;;;;;13.37;11.70;;;18.00;99.90;;;;;;4957849;28;20455;-67
2023/09/27 07:51:38;;;;;;;12.57;11.57;;;18.00;99.90;;;;;;4963997;28;20424;-65
2023/09/27 07:54:07;;;;;;;13.83;12.70;;;18.00;99.90;;;;;;4969826;28;20275;-66
2023/09/27 07:56:39;;;;;;;12.50;11.20;;;18.10;99.90;;;;;;4959859;28;20847;-65
2023/09/27 07:59:08;;;;;;;13.90;11.87;;;18.10;99.90;;;;;;4956060;28;20929;-65
2023/09/27 08:01:34;;;;;;;13.10;12.00;;;18.20;99.90;;;;;;4972956;28;20430;-67
2023/09/27 08:04:06;;;;;;;119.70;77.73;;;18.20;99.90;;;;;;4967540;28;20523;-67
2023/09/27 08:06:35;;;;;;;318.60;221.97;;;18.20;99.90;;;;;;4955074;28;20223;-66
2023/09/27 08:09:01;;;;;;;27.97;23.70;;;18.20;99.90;;;;;;4973381;28;21039;-66
2023/09/27 08:11:28;;;;;;;18.67;12.60;;;18.20;99.90;;;;;;4975174;28;20408;-69
2023/09/27 08:13:53;;;;;;;13.57;12.30;;;18.30;99.90;;;;;;4974485;28;20216;-77
2023/09/27 08:16:19;;;;;;;12.60;11.47;;;18.30;99.90;;;;;;4975034;28;20919;-78
2023/09/27 08:18:45;;;;;;;14.00;12.50;;;18.20;99.90;;;;;;4974254;28;20172;-76
2023/09/27 08:21:11;;;;;;;45.30;34.63;;;18.20;99.90;;;;;;4975042;28;20498;-77
2023/09/27 08:23:37;;;;;;;37.40;29.70;;;18.50;99.90;;;;;;4956032;28;20629;-78
2023/09/27 08:26:03;;;;;;;34.10;26.67;;;18.90;99.90;;;;;;4965834;28;20173;-76
2023/09/27 08:28:33;;;;;;;25.87;20.40;;;19.30;99.90;;;;;;4963566;28;20956;-76
2023/09/27 08:30:59;;;;;;;23.53;18.07;;;19.60;99.90;;;;;;4963158;28;20420;-77
2023/09/27 08:33:25;;;;;;;14.10;12.80;;;19.90;99.90;;;;;;4964528;28;20397;-79
2023/09/27 08:35:52;;;;;;;13.43;12.17;;;20.00;99.90;;;;;;4964327;28;20939;-78
2023/09/27 08:38:18;;;;;;;17.53;15.73;;;19.90;99.90;;;;;;4955502;28;20409;-78
2023/09/27 08:40:47;;;;;;;13.63;11.60;;;20.00;99.90;;;;;;4954647;28;20455;-71
2023/09/27 08:43:14;;;;;;;14.17;12.90;;;20.00;99.90;;;;;;4963757;28;20417;-75
2023/09/27 08:45:41;;;;;;;13.00;11.90;;;19.80;99.90;;;;;;4968273;28;20412;-75
2023/09/27 08:48:11;;;;;;;12.00;10.90;;;19.60;99.90;;;;;;4964662;28;20435;-76
2023/09/27 08:50:37;;;;;;;12.20;10.97;;;19.50;99.90;;;;;;4965215;28;20409;-75
2023/09/27 08:53:03;;;;;;;14.40;13.00;;;19.40;99.90;;;;;;4963102;28;20728;-75
2023/09/27 08:55:30;;;;;;;18.20;16.30;;;19.40;99.90;;;;;;4962624;28;20500;-78
2023/09/27 08:57:56;;;;;;;18.93;16.37;;;19.60;99.90;;;;;;4953000;29;20413;-74
2023/09/27 09:00:26;;;;;;;10.13;9.33;;;19.70;99.90;;;;;;4954753;29;20983;-74
2023/09/27 09:02:57;;;;;;;15.80;13.50;;;19.90;99.90;;;;;;4953576;28;20408;-75
2023/09/27 09:05:27;;;;;;;10.60;9.70;;;20.10;99.90;;;;;;4954762;28;20924;-75
2023/09/27 09:07:57;;;;;;;10.03;9.23;;;20.30;99.90;;;;;;4952954;29;20944;-75
2023/09/27 09:10:22;;;;;;;9.50;8.70;;;20.20;99.90;;;;;;4969920;28;20560;-74
2023/09/27 09:12:52;;;;;;;9.20;8.30;;;20.10;99.90;;;;;;4973743;28;20417;-74
2023/09/27 09:15:40;;;;;;;9.00;8.30;;;20.10;99.90;;;;;;4974491;28;20529;-75
2023/09/27 09:18:11;;;;;;;8.70;7.97;;;20.10;99.90;;;;;;4973478;28;21312;-74
2023/09/27 09:20:51;;;;;;;9.93;8.90;;;20.20;99.90;;;;;;4974103;28;20440;-74
2023/09/27 09:23:33;;;;;;;11.20;8.40;;;20.20;99.90;;;;;;4956891;28;20414;-74
2023/09/27 09:26:09;;;;;;;9.60;8.90;;;20.20;99.90;;;;;;4973294;28;20407;-71
2023/09/27 09:28:53;;;;;;;10.20;9.20;;;20.20;99.90;;;;;;4974069;28;20463;-71
2023/09/27 09:31:26;;;;;;;8.93;8.13;;;20.20;99.90;;;;;;4972734;28;20462;-71
2023/09/27 09:34:21;;;;;;;9.00;8.20;;;20.30;99.90;;;;;;4954979;28;20518;-71
2023/09/27 09:36:48;;;;;;;9.80;8.10;;;20.50;99.90;;;;;;4957015;28;20431;-71
2023/09/27 09:39:14;;;;;;;13.93;12.47;;;20.60;99.90;;;;;;4973914;28;20412;-71
2023/09/27 09:41:44;;;;;;;10.80;9.80;;;20.90;99.90;;;;;;4956257;28;20435;-71
2023/09/27 09:44:20;;;;;;;25.03;16.43;;;21.10;99.90;;;;;;4970624;28;20529;-71
2023/09/27 09:46:48;;;;;;;27.20;21.27;;;21.50;99.90;;;;;;4970005;28;20431;-71
2023/09/27 09:49:15;;;;;;;25.73;19.47;;;21.70;99.90;;;;;;4973659;28;20411;-71
2023/09/27 09:51:50;;;;;;;10.63;9.70;;;22.00;99.90;;;;;;4973636;28;20447;-71
2023/09/27 09:54:28;;;;;;;26.60;19.53;;;22.30;99.90;;;;;;4973359;28;20499;-71
2023/09/27 09:56:57;;;;;;;8.87;8.00;;;22.60;99.90;;;;;;4971731;28;20490;-71
2023/09/27 09:59:30;;;;;;;9.20;8.30;;;22.80;99.90;;;;;;4973713;28;20757;-71
2023/09/27 10:01:59;;;;;;;8.97;8.10;;;23.00;99.90;;;;;;4972781;28;20483;-71
2023/09/27 10:04:26;;;;;;;7.53;6.93;;;23.20;99.90;;;;;;4973302;28;20404;-72
2023/09/27 10:06:54;;;;;;;8.97;8.27;;;23.50;99.90;;;;;;4972743;28;20408;-71
2023/09/27 10:09:28;;;;;;;12.13;10.83;;;23.60;99.90;;;;;;4973399;28;20448;-71
2023/09/27 10:11:55;;;;;;;8.10;7.40;;;23.80;99.90;;;;;;4972727;28;20742;-71
2023/09/27 10:14:22;;;;;;;7.53;6.83;;;23.90;99.90;;;;;;4974820;28;20408;-71
2023/09/27 10:16:48;;;;;;;7.13;6.63;;;24.00;99.90;;;;;;4977137;28;20404;-71
2023/09/27 10:19:27;;;;;;;7.10;6.60;;;24.10;99.90;;;;;;4976927;28;20506;-71
2023/09/27 10:22:09;;;;;;;7.57;7.07;;;24.20;99.90;;;;;;4976678;28;20459;-71
2023/09/27 10:24:36;;;;;;;8.87;8.07;;;24.30;99.90;;;;;;4976415;28;20474;-71
2023/09/27 10:27:01;;;;;;;9.37;8.50;;;24.20;99.90;;;;;;4976258;28;20530;-71
2023/09/27 10:29:27;;;;;;;9.23;8.33;;;24.30;99.90;;;;;;4960137;28;20415;-71
2023/09/27 10:32:00;;;;;;;8.90;8.03;;;24.40;99.90;;;;;;4976291;28;20682;-71
2023/09/27 10:34:26;;;;;;;8.20;7.60;;;24.70;99.90;;;;;;4977236;28;20246;-71
2023/09/27 10:36:55;;;;;;;95.67;66.07;;;24.90;99.90;;;;;;4976548;28;20420;-71
2023/09/27 10:39:21;;;;;;;41.50;33.33;;;25.10;99.90;;;;;;4959650;28;20177;-72
2023/09/27 10:41:50;;;;;;;17.40;14.63;;;25.20;98.60;;;;;;4959573;28;20419;-71
2023/09/27 10:44:30;;;;;;;10.20;9.30;;;25.20;98.50;;;;;;4975824;28;20440;-71
2023/09/27 10:47:01;;;;;;;12.40;11.40;;;25.50;98.70;;;;;;4976048;28;20419;-71
2023/09/27 10:49:32;;;;;;;10.17;9.30;;;25.40;96.90;;;;;;4976764;28;20408;-71
2023/09/27 10:51:58;;;;;;;11.10;10.23;;;25.30;96.60;;;;;;4975396;28;20749;-70
2023/09/27 10:54:26;;;;;;;9.57;8.67;;;25.30;96.50;;;;;;4959465;28;20424;-71
2023/09/27 10:56:53;;;;;;;8.97;8.10;;;25.20;96.30;;;;;;4958410;28;20173;-70
2023/09/27 10:59:26;;;;;;;8.20;7.60;;;25.30;96.60;;;;;;4976824;28;20428;-71
2023/09/27 11:01:53;;;;;;;9.27;8.40;;;25.20;96.40;;;;;;4970039;28;20413;-70
2023/09/27 11:04:23;;;;;;;9.10;8.40;;;25.40;96.10;;;;;;4966608;28;20416;-71
2023/09/27 11:06:49;;;;;;;8.00;7.43;;;25.50;96.20;;;;;;4956227;28;20776;-71
2023/09/27 11:09:19;;;;;;;7.17;6.60;;;25.60;97.10;;;;;;4964823;28;20416;-70
2023/09/27 11:11:52;;;;;;;7.90;7.40;;;25.80;98.70;;;;;;4956621;28;20470;-70
2023/09/27 11:14:34;;;;;;;9.10;8.23;;;25.60;96.80;;;;;;4969680;28;20432;-70
2023/09/27 11:17:22;;;;;;;7.80;7.30;;;25.70;95.60;;;;;;4954510;28;20419;-70
2023/09/27 11:19:51;;;;;;;5.60;5.20;;;25.70;94.70;;;;;;4966794;28;20455;-70
2023/09/27 11:22:30;;;;;;;6.70;6.20;;;25.80;93.90;;;;;;4964670;28;20416;-71
2023/09/27 11:24:56;;;;;;;5.23;4.93;;;26.00;94.80;;;;;;4968310;28;20442;-71
2023/09/27 11:27:22;;;;;;;4.60;4.20;;;26.20;91.00;;;;;;4967053;28;20464;-71
2023/09/27 11:29:52;;;;;;;6.60;6.10;;;26.40;91.40;;;;;;4967108;28;20420;-72
2023/09/27 11:32:18;;;;;;;5.10;4.80;;;26.70;90.20;;;;;;4963588;28;20416;-72
2023/09/27 11:34:56;;;;;;;5.53;5.10;;;26.80;83.50;;;;;;4965937;28;20492;-72
2023/09/27 11:37:26;;;;;;;6.20;5.80;;;26.60;86.40;;;;;;4968642;28;20446;-71
2023/09/27 11:39:54;;;;;;;5.00;4.70;;;26.40;83.90;;;;;;4971658;28;20464;-72
2023/09/27 11:42:24;;;;;;;6.33;5.83;;;26.60;86.90;;;;;;4975097;28;20423;-72
2023/09/27 11:45:13;;;;;;;7.90;5.60;;;26.80;85.80;;;;;;4967973;28;20392;-72
2023/09/27 11:47:49;;;;;;;5.40;5.00;;;26.80;86.90;;;;;;4957733;28;20482;-72
2023/09/27 11:50:17;;;;;;;6.10;5.70;;;26.80;86.50;;;;;;4973772;28;21024;-72
2023/09/27 11:52:46;;;;;;;6.77;6.37;;;26.80;85.40;;;;;;4958139;28;20431;-72
2023/09/27 11:55:13;;;;;;;117.03;84.67;;;26.80;86.50;;;;;;4974593;28;20400;-71
2023/09/27 11:57:39;;;;;;;10.37;9.47;;;26.80;87.30;;;;;;4975110;28;20412;-72
2023/09/27 12:00:08;;;;;;;10.80;9.70;;;26.80;87.00;;;;;;4974426;28;20451;-71
2023/09/27 12:02:35;;;;;;;6.93;6.43;;;26.70;88.40;;;;;;4974982;28;20880;-72
2023/09/27 12:05:01;;;;;;;8.27;7.67;;;26.50;88.00;;;;;;4957064;28;20431;-75
2023/09/27 12:07:27;;;;;;;6.60;6.10;;;26.50;87.70;;;;;;4975301;28;20418;-75
2023/09/27 12:09:54;;;;;;;6.23;5.93;;;26.40;88.90;;;;;;4973855;28;20440;-75
2023/09/27 12:12:20;;;;;;;5.90;5.60;;;26.40;89.40;;;;;;4974684;28;20238;-75
2023/09/27 12:14:46;;;;;;;6.50;6.10;;;26.40;89.30;;;;;;4975085;28;20412;-74
2023/09/27 12:17:12;;;;;;;5.40;5.10;;;26.30;90.20;;;;;;4974331;28;20178;-75
2023/09/27 12:19:39;;;;;;;5.83;5.33;;;26.00;87.20;;;;;;4974957;28;20196;-75
2023/09/27 12:22:05;;;;;;;5.00;4.70;;;25.90;90.20;;;;;;4971188;28;20499;-75
2023/09/27 12:24:31;;;;;;;5.13;4.93;;;25.90;90.10;;;;;;4972821;28;20501;-74
2023/09/27 12:26:57;;;;;;;4.93;4.63;;;25.70;87.50;;;;;;4966056;28;20224;-71
2023/09/27 12:29:22;;;;;;;5.70;5.27;;;25.60;89.00;;;;;;4964729;28;20173;-75
2023/09/27 12:31:48;;;;;;;5.10;4.80;;;25.70;90.60;;;;;;4955375;29;20275;-75
2023/09/27 12:34:14;;;;;;;5.80;5.40;;;25.70;90.40;;;;;;4954398;29;20181;-75
2023/09/27 12:36:39;;;;;;;5.97;5.67;;;25.70;90.50;;;;;;4955008;28;20173;-75
2023/09/27 12:39:05;;;;;;;5.33;5.03;;;25.70;90.80;;;;;;4970912;28;20184;-76